Carlton, Colorado
Current Conditions -  °F | °C
As of 2:53 AM on Thursday 23 Oct 2014 (Local Time) from KLAA Reporting Station
Clear Clear  
Wind Chill: 42°   Ceiling: Unl
Heat Index: 44°   Visibility: 9mi
Dew Point: 41°   Wind: 5mph
Humidity: 89%   Direction: 230°SW
Pressure: 30.08"   Gusts: NA
Location:  37.885°N, 102.667°W
Report Text: KLAA 230853Z AUTO 23004KT 9SM CLR 07/05 A3008 RMK AO2 SLP155 T00670050 53001
Loading
Personal Weather Stations






























Interactive Weather Map
Tropical Storm Tracking
New forecast layout! Learn more

10-Day Weather Forecast

Advertisements
Track Severe Weather on mobile